createdAt,value
2017-09-29T00:02:22.217Z,13.60
2017-09-29T00:04:48.521Z,13.60
2017-09-29T00:07:14.843Z,13.60
2017-09-29T00:09:41.149Z,13.50
2017-09-29T00:12:07.467Z,13.50
2017-09-29T00:14:33.819Z,13.40
2017-09-29T00:17:00.914Z,13.40
2017-09-29T00:19:27.221Z,13.40
2017-09-29T00:21:53.627Z,13.50
2017-09-29T00:24:21.056Z,13.40
2017-09-29T00:26:47.385Z,13.40
2017-09-29T00:29:13.698Z,13.40
2017-09-29T00:31:40.038Z,13.40
2017-09-29T00:34:06.394Z,13.40
2017-09-29T00:36:32.738Z,13.40
2017-09-29T00:39:00.857Z,13.50
2017-09-29T00:41:27.222Z,13.50
2017-09-29T00:43:53.602Z,13.50
2017-09-29T00:46:20.130Z,13.50
2017-09-29T00:48:46.536Z,13.50
2017-09-29T00:51:14.608Z,13.40
2017-09-29T00:53:41.711Z,13.40
2017-09-29T00:56:08.055Z,13.40
2017-09-29T00:58:34.426Z,13.40
2017-09-29T01:01:00.805Z,13.30
2017-09-29T01:03:27.153Z,13.30
2017-09-29T01:05:53.503Z,13.10
2017-09-29T01:08:20.642Z,12.90
2017-09-29T01:10:47.972Z,12.90
2017-09-29T01:13:14.311Z,12.90
2017-09-29T01:15:40.647Z,12.90
2017-09-29T01:18:07.006Z,12.70
2017-09-29T01:20:35.121Z,12.70
2017-09-29T01:23:01.482Z,12.70
2017-09-29T01:25:27.827Z,12.70
2017-09-29T01:27:54.941Z,12.70
2017-09-29T01:30:21.330Z,12.70
2017-09-29T01:32:47.662Z,12.70
2017-09-29T01:35:14.014Z,12.70
2017-09-29T01:37:42.089Z,12.80
2017-09-29T01:40:08.437Z,12.80
2017-09-29T01:42:34.826Z,12.80
2017-09-29T01:45:16.024Z,12.80
2017-09-29T01:47:42.399Z,12.80
2017-09-29T01:50:08.762Z,12.70
2017-09-29T01:52:35.094Z,12.60
2017-09-29T01:55:01.414Z,12.50
2017-09-29T01:57:28.495Z,12.40
2017-09-29T01:59:54.838Z,12.40
2017-09-29T02:02:21.183Z,12.40
2017-09-29T02:04:47.543Z,12.40
2017-09-29T02:07:14.627Z,12.30
2017-09-29T02:09:40.969Z,12.30
2017-09-29T02:12:07.311Z,12.30
2017-09-29T02:14:33.670Z,12.30
2017-09-29T02:17:00.077Z,12.40
2017-09-29T02:19:27.162Z,12.40
2017-09-29T02:21:54.262Z,12.40
2017-09-29T02:24:20.619Z,12.40
2017-09-29T02:26:47.950Z,12.40
2017-09-29T02:29:14.307Z,12.50
2017-09-29T02:31:40.667Z,12.50
2017-09-29T02:34:08.795Z,12.40
2017-09-29T02:36:35.129Z,12.40
2017-09-29T02:39:01.498Z,12.30
2017-09-29T02:41:28.589Z,12.40
2017-09-29T02:43:55.909Z,12.30
2017-09-29T02:46:22.249Z,12.40
2017-09-29T02:48:48.601Z,12.40
2017-09-29T02:51:15.481Z,12.30
2017-09-29T02:53:41.822Z,12.40
2017-09-29T02:56:08.918Z,12.40
2017-09-29T02:58:38.052Z,12.40
2017-09-29T03:01:09.417Z,12.40
2017-09-29T03:03:39.386Z,12.40
2017-09-29T03:06:08.346Z,12.30
2017-09-29T03:08:34.686Z,12.30
2017-09-29T03:11:01.094Z,12.20
2017-09-29T03:13:28.184Z,12.10
2017-09-29T03:15:54.505Z,12.10
2017-09-29T03:18:20.826Z,12.10
2017-09-29T03:20:47.157Z,12.20
2017-09-29T03:23:13.506Z,12.10
2017-09-29T03:25:39.833Z,12.10
2017-09-29T03:28:06.162Z,12.10
2017-09-29T03:30:32.504Z,12.10
2017-09-29T03:32:58.826Z,12.10
2017-09-29T03:35:25.202Z,12.00
2017-09-29T03:37:52.306Z,12.00
2017-09-29T03:40:18.668Z,11.90
2017-09-29T03:42:45.007Z,12.00
2017-09-29T03:45:11.340Z,12.00
2017-09-29T03:47:37.688Z,12.00
2017-09-29T03:50:09.922Z,12.00
2017-09-29T03:52:40.401Z,11.90
2017-09-29T03:55:12.550Z,11.90
2017-09-29T03:57:44.105Z,11.90
2017-09-29T04:00:10.429Z,11.80
2017-09-29T04:02:37.653Z,11.80
2017-09-29T04:05:03.985Z,11.80
2017-09-29T04:07:30.341Z,11.80
2017-09-29T04:10:01.015Z,11.80
2017-09-29T04:12:28.369Z,11.80
2017-09-29T04:14:54.710Z,11.80
2017-09-29T04:17:21.081Z,11.80
2017-09-29T04:19:48.154Z,11.80
2017-09-29T04:22:15.498Z,11.70
2017-09-29T04:24:41.843Z,11.80
2017-09-29T04:27:08.154Z,11.70
2017-09-29T04:29:34.503Z,11.70
2017-09-29T04:32:00.860Z,11.70
2017-09-29T04:34:27.188Z,11.60
2017-09-29T04:36:53.498Z,11.80
2017-09-29T04:39:20.579Z,11.70
2017-09-29T04:41:46.898Z,11.70
2017-09-29T04:44:13.222Z,11.70
2017-09-29T04:46:39.535Z,11.70
2017-09-29T04:49:05.856Z,11.60
2017-09-29T04:51:32.207Z,11.60
2017-09-29T04:53:58.533Z,11.70
2017-09-29T04:56:24.841Z,11.70
2017-09-29T04:58:51.166Z,11.80
2017-09-29T05:01:17.473Z,11.80
2017-09-29T05:03:43.778Z,11.80
2017-09-29T05:06:10.123Z,11.90
2017-09-29T05:08:36.453Z,11.90
2017-09-29T05:11:02.766Z,12.00
2017-09-29T05:13:29.078Z,12.00
2017-09-29T05:15:55.424Z,12.00
2017-09-29T05:18:21.797Z,12.00
2017-09-29T05:20:48.917Z,12.20
2017-09-29T05:23:15.269Z,12.20
2017-09-29T05:25:42.354Z,12.30
2017-09-29T05:28:09.430Z,12.40
2017-09-29T05:30:35.798Z,12.40
2017-09-29T05:33:02.855Z,12.50
2017-09-29T05:35:29.937Z,12.60
2017-09-29T05:37:56.246Z,12.60
2017-09-29T05:40:22.562Z,12.80
2017-09-29T05:42:49.626Z,13.00
2017-09-29T05:45:15.955Z,12.90
2017-09-29T05:47:43.253Z,13.10
2017-09-29T05:50:09.557Z,13.20
2017-09-29T05:52:35.868Z,13.40
2017-09-29T05:55:02.248Z,13.50
2017-09-29T05:57:28.557Z,13.60
2017-09-29T05:59:54.863Z,13.80
2017-09-29T06:02:21.210Z,13.90
2017-09-29T06:04:48.546Z,14.10
2017-09-29T06:07:14.880Z,14.20
2017-09-29T06:09:41.929Z,14.30
2017-09-29T06:12:08.317Z,14.30
2017-09-29T06:14:34.626Z,14.40
2017-09-29T06:17:00.947Z,14.40
2017-09-29T06:19:27.668Z,14.40
2017-09-29T06:21:53.990Z,14.50
2017-09-29T06:24:20.386Z,14.60
2017-09-29T06:26:47.471Z,14.70
2017-09-29T06:29:13.806Z,14.60
2017-09-29T06:31:40.878Z,14.80
2017-09-29T06:34:07.194Z,14.80
2017-09-29T06:36:33.517Z,14.90
2017-09-29T06:38:59.840Z,15.10
2017-09-29T06:41:27.194Z,15.30
2017-09-29T06:43:54.506Z,15.30
2017-09-29T06:46:21.573Z,15.60
2017-09-29T06:48:47.895Z,15.60
2017-09-29T06:51:14.962Z,15.90
2017-09-29T06:53:41.282Z,15.80
2017-09-29T06:56:07.602Z,16.00
2017-09-29T06:58:34.679Z,16.40
2017-09-29T07:01:00.998Z,16.40
2017-09-29T07:03:27.309Z,16.70
2017-09-29T07:05:54.354Z,16.90
2017-09-29T07:08:20.678Z,16.80
2017-09-29T07:10:47.749Z,17.00
2017-09-29T07:13:14.798Z,17.20
2017-09-29T07:15:41.129Z,17.20
2017-09-29T07:18:07.457Z,17.30
2017-09-29T07:20:34.855Z,17.50
2017-09-29T07:23:01.203Z,17.70
2017-09-29T07:25:33.321Z,18.00
2017-09-29T07:28:02.130Z,18.10
2017-09-29T07:30:38.937Z,18.20
2017-09-29T07:33:05.270Z,18.30
2017-09-29T07:35:32.362Z,18.40
2017-09-29T07:37:58.716Z,18.40
2017-09-29T07:40:25.073Z,18.50
2017-09-29T07:42:51.378Z,18.40
2017-09-29T07:45:17.708Z,18.40
2017-09-29T07:47:44.034Z,18.30
2017-09-29T07:50:10.346Z,18.30
2017-09-29T07:52:37.421Z,18.60
2017-09-29T07:55:03.736Z,18.60
2017-09-29T07:57:30.082Z,18.80
2017-09-29T07:59:57.016Z,19.10
2017-09-29T08:02:23.637Z,19.30
2017-09-29T08:04:49.948Z,19.40
2017-09-29T08:07:16.258Z,19.20
2017-09-29T08:09:43.314Z,19.50
2017-09-29T08:12:09.637Z,19.50
2017-09-29T08:14:37.725Z,19.70
2017-09-29T08:17:04.037Z,19.60
2017-09-29T08:19:32.111Z,19.40
2017-09-29T08:21:59.190Z,19.40
2017-09-29T08:24:26.509Z,19.30
2017-09-29T08:26:53.558Z,19.90
2017-09-29T08:29:20.601Z,19.90
2017-09-29T08:31:47.654Z,20.10
2017-09-29T08:34:14.706Z,20.40
2017-09-29T08:36:41.026Z,20.30
2017-09-29T08:39:08.074Z,20.50
2017-09-29T08:41:35.132Z,20.60
2017-09-29T08:44:01.452Z,20.60
2017-09-29T08:46:28.502Z,21.10
2017-09-29T08:48:55.549Z,21.10
2017-09-29T08:51:22.674Z,21.10
2017-09-29T08:53:49.003Z,21.00
2017-09-29T08:56:15.319Z,21.10
2017-09-29T08:58:41.630Z,21.30
2017-09-29T09:01:07.951Z,21.60
2017-09-29T09:03:34.256Z,21.80
2017-09-29T09:06:00.578Z,21.80
2017-09-29T09:08:27.622Z,21.20
2017-09-29T09:10:55.665Z,21.00
2017-09-29T09:13:21.989Z,21.00
2017-09-29T09:15:48.306Z,20.80
2017-09-29T09:18:14.616Z,20.60
2017-09-29T09:20:40.921Z,20.40
2017-09-29T09:23:08.233Z,20.40
2017-09-29T09:25:34.548Z,20.40
2017-09-29T09:28:00.879Z,20.70
2017-09-29T09:30:27.219Z,21.10
2017-09-29T09:32:53.523Z,21.40
2017-09-29T09:35:19.818Z,21.30
2017-09-29T09:37:46.126Z,21.10
2017-09-29T09:40:12.438Z,21.10
2017-09-29T09:42:38.780Z,21.30
2017-09-29T09:45:05.082Z,21.60
2017-09-29T09:47:31.388Z,21.60
2017-09-29T09:49:57.727Z,21.80
2017-09-29T09:52:24.069Z,21.80
2017-09-29T09:54:50.380Z,21.60
2017-09-29T09:57:16.690Z,21.30
2017-09-29T09:59:42.998Z,21.20
2017-09-29T10:02:10.042Z,21.60
2017-09-29T10:04:37.110Z,22.00
2017-09-29T10:07:04.203Z,22.50
2017-09-29T10:09:30.557Z,22.50
2017-09-29T10:11:56.914Z,23.10
2017-09-29T10:14:23.966Z,23.70
2017-09-29T10:16:50.303Z,23.60
2017-09-29T10:19:17.590Z,23.90
2017-09-29T10:21:43.918Z,24.20
2017-09-29T10:24:10.254Z,24.30
2017-09-29T10:26:36.592Z,24.30
2017-09-29T10:29:02.934Z,24.10
2017-09-29T10:31:29.258Z,24.10
2017-09-29T10:33:55.578Z,24.00
2017-09-29T10:36:21.911Z,24.10
2017-09-29T10:38:48.218Z,24.10
2017-09-29T10:41:15.277Z,23.90
2017-09-29T10:43:41.585Z,23.80
2017-09-29T10:46:07.921Z,23.70
2017-09-29T10:48:34.241Z,23.90
2017-09-29T10:51:00.605Z,24.10
2017-09-29T10:53:26.930Z,23.90
2017-09-29T10:55:53.242Z,24.10
2017-09-29T10:58:19.582Z,24.20
2017-09-29T11:00:45.885Z,24.50
2017-09-29T11:03:12.217Z,24.70
2017-09-29T11:05:38.533Z,24.90
2017-09-29T11:08:06.566Z,25.10
2017-09-29T11:10:33.194Z,25.00
2017-09-29T11:12:59.502Z,24.90
2017-09-29T11:15:25.830Z,24.60
2017-09-29T11:17:52.139Z,24.50
2017-09-29T11:20:18.457Z,24.40
2017-09-29T11:22:45.502Z,24.30
2017-09-29T11:25:13.576Z,24.00
2017-09-29T11:27:40.638Z,23.50
2017-09-29T11:30:07.928Z,23.50
2017-09-29T11:32:34.239Z,22.80
2017-09-29T11:35:00.558Z,22.40
2017-09-29T11:37:27.609Z,21.70
2017-09-29T11:39:53.924Z,21.60
2017-09-29T11:42:20.237Z,21.80
2017-09-29T11:44:47.273Z,22.00
2017-09-29T11:47:14.326Z,22.00
2017-09-29T11:49:41.382Z,22.20
2017-09-29T11:52:08.429Z,22.10
2017-09-29T11:54:36.475Z,22.00
2017-09-29T11:57:02.787Z,22.00
2017-09-29T11:59:29.093Z,21.90
2017-09-29T12:01:55.407Z,21.60
2017-09-29T12:04:21.721Z,21.40
2017-09-29T12:06:48.785Z,21.50
2017-09-29T12:09:15.084Z,21.50
2017-09-29T12:11:42.130Z,21.70
2017-09-29T12:14:09.224Z,21.60
2017-09-29T12:16:35.567Z,21.60
2017-09-29T12:19:01.888Z,21.60
2017-09-29T12:21:28.209Z,21.40
2017-09-29T12:23:54.513Z,21.50
2017-09-29T12:26:20.852Z,21.40
2017-09-29T12:28:47.170Z,21.50
2017-09-29T12:31:15.208Z,22.10
2017-09-29T12:33:41.526Z,22.00
2017-09-29T12:36:07.846Z,22.40
2017-09-29T12:38:35.183Z,22.60
2017-09-29T12:41:01.497Z,22.30
2017-09-29T12:43:27.814Z,22.30
2017-09-29T12:45:54.874Z,22.10
2017-09-29T12:48:21.207Z,22.10
2017-09-29T12:50:47.523Z,22.50
2017-09-29T12:53:13.855Z,22.80
2017-09-29T12:55:40.193Z,23.00
2017-09-29T12:58:06.506Z,23.30
2017-09-29T13:00:33.588Z,23.00
2017-09-29T13:02:59.902Z,23.00
2017-09-29T13:05:26.983Z,23.00
2017-09-29T13:07:53.314Z,23.00
2017-09-29T13:10:19.650Z,23.10
2017-09-29T13:12:45.961Z,23.20
2017-09-29T13:15:12.297Z,23.00
2017-09-29T13:17:38.620Z,22.80
2017-09-29T13:20:05.089Z,22.80
2017-09-29T13:22:31.397Z,22.90
2017-09-29T13:24:57.726Z,23.00
2017-09-29T13:27:24.139Z,22.80
2017-09-29T13:29:50.462Z,22.90
2017-09-29T13:32:16.786Z,22.80
2017-09-29T13:34:43.132Z,22.80
2017-09-29T13:37:09.440Z,22.40
2017-09-29T13:39:35.761Z,22.20
2017-09-29T13:42:02.850Z,22.30
2017-09-29T13:44:29.168Z,22.20
2017-09-29T13:46:55.504Z,22.10
2017-09-29T13:49:21.826Z,21.90
2017-09-29T13:51:48.134Z,21.90
2017-09-29T13:54:14.437Z,22.20
2017-09-29T13:56:40.762Z,22.20
2017-09-29T13:59:07.066Z,22.20
2017-09-29T14:01:34.415Z,22.10
2017-09-29T14:04:01.717Z,22.20
2017-09-29T14:06:28.800Z,22.10
2017-09-29T14:08:55.863Z,22.00
2017-09-29T14:11:22.182Z,22.00
2017-09-29T14:13:48.526Z,21.70
2017-09-29T14:16:14.830Z,21.40
2017-09-29T14:18:41.146Z,21.30
2017-09-29T14:21:07.466Z,21.40
2017-09-29T14:23:34.538Z,21.60
2017-09-29T14:26:00.855Z,21.70
2017-09-29T14:28:27.185Z,21.70
2017-09-29T14:30:53.496Z,21.80
2017-09-29T14:33:20.558Z,22.00
2017-09-29T14:35:46.890Z,22.00
2017-09-29T14:38:13.217Z,22.10
2017-09-29T14:40:40.337Z,22.10
2017-09-29T14:43:06.645Z,22.10
2017-09-29T14:45:32.968Z,21.90
2017-09-29T14:47:59.301Z,22.00
2017-09-29T14:50:25.619Z,22.10
2017-09-29T14:52:51.925Z,22.10
2017-09-29T14:55:18.240Z,22.00
2017-09-29T14:57:45.302Z,21.90
2017-09-29T15:00:11.611Z,21.90
2017-09-29T15:02:38.679Z,21.70
2017-09-29T15:05:05.001Z,21.70
2017-09-29T15:07:31.413Z,21.60
2017-09-29T15:09:58.476Z,21.30
2017-09-29T15:12:24.802Z,21.30
2017-09-29T15:14:51.845Z,21.20
2017-09-29T15:17:18.901Z,21.10
2017-09-29T15:19:45.206Z,21.10
2017-09-29T15:22:11.557Z,21.10
2017-09-29T15:24:38.655Z,20.80
2017-09-29T15:27:04.977Z,20.80
2017-09-29T15:29:31.304Z,20.80
2017-09-29T15:31:57.650Z,20.80
2017-09-29T15:34:23.981Z,20.80
2017-09-29T15:36:50.298Z,20.80
2017-09-29T15:39:17.653Z,20.80
2017-09-29T15:41:43.962Z,20.80
2017-09-29T15:44:11.305Z,20.70
2017-09-29T15:46:37.626Z,20.80
2017-09-29T15:49:03.941Z,20.80
2017-09-29T15:51:32.051Z,20.80
2017-09-29T15:53:58.396Z,20.80
2017-09-29T15:56:24.711Z,20.90
2017-09-29T15:58:51.023Z,21.00
2017-09-29T16:01:17.338Z,21.10
2017-09-29T16:03:44.425Z,21.40
2017-09-29T16:06:10.738Z,21.40
2017-09-29T16:08:37.051Z,21.60
2017-09-29T16:11:04.105Z,21.80
2017-09-29T16:13:30.441Z,21.80
2017-09-29T16:15:56.770Z,21.90
2017-09-29T16:18:23.092Z,21.70
2017-09-29T16:20:50.147Z,21.50
2017-09-29T16:23:16.457Z,21.40
2017-09-29T16:25:43.559Z,21.10
2017-09-29T16:28:09.889Z,21.00
2017-09-29T16:30:36.202Z,20.90
2017-09-29T16:33:02.510Z,20.70
2017-09-29T16:35:28.826Z,20.50
2017-09-29T16:37:55.902Z,20.30
2017-09-29T16:40:22.233Z,20.30
2017-09-29T16:42:48.578Z,20.20
2017-09-29T16:45:14.904Z,20.10
2017-09-29T16:47:41.233Z,19.90
2017-09-29T16:50:07.534Z,19.80
2017-09-29T16:52:33.853Z,19.70
2017-09-29T16:55:00.901Z,19.20
2017-09-29T16:57:27.951Z,19.00
2017-09-29T16:59:54.993Z,18.70
2017-09-29T17:02:22.042Z,18.50
2017-09-29T17:04:49.122Z,18.20
2017-09-29T17:07:15.453Z,18.20
2017-09-29T17:09:41.779Z,18.00
2017-09-29T17:12:08.089Z,17.90
2017-09-29T17:14:34.411Z,17.90
2017-09-29T17:17:01.474Z,17.90
2017-09-29T17:19:27.794Z,17.80
2017-09-29T17:21:54.297Z,17.80
2017-09-29T17:24:20.658Z,17.80
2017-09-29T17:26:47.705Z,17.50
2017-09-29T17:29:15.765Z,17.40
2017-09-29T17:31:42.829Z,17.40
2017-09-29T17:34:09.150Z,17.30
2017-09-29T17:36:36.199Z,17.20
2017-09-29T17:39:03.317Z,17.20
2017-09-29T17:41:30.630Z,17.10
2017-09-29T17:43:56.929Z,17.10
2017-09-29T17:46:24.009Z,17.00
2017-09-29T17:48:50.342Z,17.00
2017-09-29T17:51:16.681Z,16.80
2017-09-29T17:53:42.981Z,16.60
2017-09-29T17:56:09.301Z,16.30
2017-09-29T17:58:35.633Z,16.10
2017-09-29T18:01:01.953Z,15.90
2017-09-29T18:03:29.010Z,15.90
2017-09-29T18:05:55.331Z,15.80
2017-09-29T18:08:22.398Z,15.90
2017-09-29T18:10:48.786Z,15.90
2017-09-29T18:13:15.094Z,16.00
2017-09-29T18:15:41.413Z,16.00
2017-09-29T18:18:09.571Z,15.90
2017-09-29T18:20:35.903Z,15.90
2017-09-29T18:23:02.223Z,16.00
2017-09-29T18:25:28.546Z,16.10
2017-09-29T18:27:54.849Z,16.20
2017-09-29T18:30:21.902Z,16.00
2017-09-29T18:32:50.006Z,16.10
2017-09-29T18:35:16.324Z,16.10
2017-09-29T18:37:42.641Z,16.10
2017-09-29T18:40:09.733Z,16.20
2017-09-29T18:42:36.087Z,16.20
2017-09-29T18:45:03.303Z,16.20
2017-09-29T18:47:29.653Z,16.30
2017-09-29T18:49:55.955Z,16.30
2017-09-29T18:52:22.265Z,16.40
2017-09-29T18:54:48.598Z,16.40
2017-09-29T18:57:14.949Z,16.50
2017-09-29T18:59:41.297Z,16.50
2017-09-29T19:02:07.634Z,16.50
2017-09-29T19:04:33.959Z,16.40
2017-09-29T19:07:00.266Z,16.20
2017-09-29T19:09:27.622Z,16.20
2017-09-29T19:11:53.945Z,16.20
2017-09-29T19:14:20.254Z,16.30
2017-09-29T19:16:47.304Z,16.40
2017-09-29T19:19:14.346Z,16.40
2017-09-29T19:21:42.425Z,16.40
2017-09-29T19:24:08.763Z,16.40
2017-09-29T19:26:35.088Z,16.40
2017-09-29T19:29:01.405Z,16.30
2017-09-29T19:31:28.458Z,16.20
2017-09-29T19:33:56.525Z,16.30
2017-09-29T19:36:24.558Z,16.30
2017-09-29T19:38:50.914Z,16.30
2017-09-29T19:41:17.973Z,16.40
2017-09-29T19:43:45.022Z,16.40
2017-09-29T19:46:12.078Z,16.30
2017-09-29T19:48:38.478Z,16.30
2017-09-29T19:51:04.802Z,16.30
2017-09-29T19:53:31.126Z,16.30
2017-09-29T19:55:57.442Z,16.30
2017-09-29T19:58:23.767Z,16.20
2017-09-29T20:00:50.087Z,16.20
2017-09-29T20:03:16.409Z,16.20
2017-09-29T20:05:42.723Z,16.20
2017-09-29T20:08:09.046Z,16.20
2017-09-29T20:10:35.362Z,16.10
2017-09-29T20:13:02.410Z,16.10
2017-09-29T20:15:29.482Z,16.20
2017-09-29T20:17:55.804Z,16.20
2017-09-29T20:20:22.121Z,16.20
2017-09-29T20:22:48.430Z,16.20
2017-09-29T20:25:14.743Z,16.30
2017-09-29T20:27:42.049Z,16.20
2017-09-29T20:30:08.354Z,16.20
2017-09-29T20:32:35.429Z,16.20
2017-09-29T20:35:01.740Z,16.10
2017-09-29T20:37:29.817Z,16.10
2017-09-29T20:39:56.142Z,16.10
2017-09-29T20:42:24.196Z,16.00
2017-09-29T20:44:51.253Z,16.00
2017-09-29T20:47:18.319Z,15.90
2017-09-29T20:49:44.646Z,15.90
2017-09-29T20:52:10.966Z,15.80
2017-09-29T20:54:38.106Z,15.70
2017-09-29T20:57:05.173Z,15.70
2017-09-29T20:59:31.493Z,15.70
2017-09-29T21:01:58.553Z,15.70
2017-09-29T21:04:24.865Z,15.70
2017-09-29T21:06:51.909Z,15.60
2017-09-29T21:09:18.958Z,15.60
2017-09-29T21:11:46.006Z,15.70
2017-09-29T21:14:13.065Z,15.70
2017-09-29T21:16:39.381Z,15.70
2017-09-29T21:19:06.426Z,15.70
2017-09-29T21:21:33.478Z,15.70
2017-09-29T21:24:00.550Z,15.60
2017-09-29T21:26:26.957Z,15.60
2017-09-29T21:28:54.041Z,15.50
2017-09-29T21:31:20.399Z,15.50
2017-09-29T21:33:46.740Z,15.50
2017-09-29T21:36:13.040Z,15.50
2017-09-29T21:38:40.347Z,15.60
2017-09-29T21:41:07.427Z,15.30
2017-09-29T21:43:33.734Z,15.40
2017-09-29T21:46:00.030Z,15.30
2017-09-29T21:48:26.394Z,15.40
2017-09-29T21:50:53.439Z,15.40
2017-09-29T21:53:20.485Z,15.30
2017-09-29T21:55:47.562Z,15.30
2017-09-29T21:58:13.898Z,15.30
2017-09-29T22:00:41.318Z,15.30
2017-09-29T22:03:07.865Z,15.30
2017-09-29T22:05:34.225Z,15.30
2017-09-29T22:08:01.566Z,15.30
2017-09-29T22:10:27.868Z,15.30
2017-09-29T22:12:54.915Z,15.30
2017-09-29T22:15:21.246Z,15.20
2017-09-29T22:17:48.283Z,15.30
2017-09-29T22:20:15.322Z,15.30
2017-09-29T22:22:42.374Z,15.30
2017-09-29T22:25:09.442Z,15.20
2017-09-29T22:27:35.761Z,15.20
2017-09-29T22:30:02.819Z,15.20
2017-09-29T22:32:29.148Z,15.20
2017-09-29T22:34:56.477Z,15.20
2017-09-29T22:37:23.578Z,15.20
2017-09-29T22:39:49.889Z,15.20
2017-09-29T22:42:17.250Z,15.20
2017-09-29T22:44:43.571Z,15.20
2017-09-29T22:47:09.885Z,15.20
2017-09-29T22:49:36.929Z,15.10
2017-09-29T22:52:04.003Z,15.00
2017-09-29T22:54:30.322Z,15.00
2017-09-29T22:56:56.649Z,15.00
2017-09-29T22:59:22.967Z,15.10
2017-09-29T23:01:50.014Z,15.20
2017-09-29T23:04:17.099Z,15.20
2017-09-29T23:06:43.433Z,15.10
2017-09-29T23:09:09.738Z,15.20
2017-09-29T23:11:36.086Z,15.20
2017-09-29T23:14:02.412Z,15.10
2017-09-29T23:16:28.840Z,15.10
2017-09-29T23:18:55.457Z,15.10
2017-09-29T23:21:21.773Z,15.10
2017-09-29T23:23:48.830Z,15.10
2017-09-29T23:26:15.133Z,15.10
2017-09-29T23:28:41.434Z,15.10
2017-09-29T23:31:07.765Z,15.10
2017-09-29T23:33:34.071Z,15.10
2017-09-29T23:36:00.397Z,15.10
2017-09-29T23:38:26.717Z,15.10
2017-09-29T23:40:54.035Z,15.10
2017-09-29T23:43:20.338Z,15.00
2017-09-29T23:45:46.640Z,15.10
2017-09-29T23:48:12.965Z,15.00
2017-09-29T23:50:39.282Z,15.00
2017-09-29T23:53:05.609Z,15.00
2017-09-29T23:55:32.657Z,14.90
2017-09-29T23:57:59.704Z,15.00
